createdAt,value
2018-04-29T00:01:07.479Z,20.06
2018-04-29T00:02:16.704Z,20.01
2018-04-29T00:03:26.469Z,20.02
2018-04-29T00:04:36.280Z,20.01
2018-04-29T00:05:45.773Z,19.99
2018-04-29T00:06:55.531Z,20.11
2018-04-29T00:08:04.485Z,19.96
2018-04-29T00:09:13.448Z,20.06
2018-04-29T00:10:22.940Z,19.88
2018-04-29T00:11:32.704Z,20.03
2018-04-29T00:12:42.205Z,20.01
2018-04-29T00:13:51.695Z,20.01
2018-04-29T00:15:00.919Z,20.02
2018-04-29T00:16:10.686Z,20.03
2018-04-29T00:17:20.457Z,19.96
2018-04-29T00:18:29.961Z,19.98
2018-04-29T00:19:39.724Z,20.01
2018-04-29T00:20:48.958Z,19.91
2018-04-29T00:21:58.488Z,20.02
2018-04-29T00:23:07.980Z,20.02
2018-04-29T00:24:17.206Z,19.99
2018-04-29T00:25:26.703Z,19.99
2018-04-29T00:26:36.194Z,20.01
2018-04-29T00:27:45.957Z,19.94
2018-04-29T00:28:55.451Z,19.94
2018-04-29T00:30:04.411Z,19.92
2018-04-29T00:31:14.443Z,19.91
2018-04-29T00:32:23.697Z,20.03
2018-04-29T00:33:32.894Z,19.88
2018-04-29T00:34:42.128Z,19.84
2018-04-29T00:35:51.357Z,19.95
2018-04-29T00:37:01.117Z,20.01
2018-04-29T00:38:10.342Z,19.99
2018-04-29T00:39:19.575Z,19.98
2018-04-29T00:40:29.063Z,19.96
2018-04-29T00:41:38.297Z,19.95
2018-04-29T00:42:47.790Z,19.99
2018-04-29T00:43:57.548Z,19.99
2018-04-29T00:45:07.318Z,19.86
2018-04-29T00:46:16.282Z,19.86
2018-04-29T00:47:26.312Z,19.88
2018-04-29T00:48:35.538Z,19.86
2018-04-29T00:49:45.297Z,19.8
2018-04-29T00:50:54.553Z,19.81
2018-04-29T00:52:03.797Z,19.87
2018-04-29T00:53:13.677Z,19.83
2018-04-29T00:54:23.909Z,19.84
2018-04-29T00:55:33.139Z,19.78
2018-04-29T00:56:42.908Z,19.81
2018-04-29T00:57:52.402Z,19.87
2018-04-29T00:59:01.811Z,19.83
2018-04-29T01:00:11.619Z,19.81
2018-04-29T01:01:21.385Z,19.84
2018-04-29T01:02:30.608Z,19.86
2018-04-29T01:03:39.836Z,19.87
2018-04-29T01:04:49.344Z,19.86
2018-04-29T01:05:59.175Z,19.8
2018-04-29T01:07:09.634Z,19.88
2018-04-29T01:08:18.592Z,19.83
2018-04-29T01:09:27.819Z,19.83
2018-04-29T01:10:37.315Z,19.83
2018-04-29T01:11:47.081Z,19.81
2018-04-29T01:12:56.308Z,19.78
2018-04-29T01:14:05.542Z,19.81
2018-04-29T01:15:15.097Z,19.76
2018-04-29T01:16:24.588Z,19.83
2018-04-29T01:17:34.083Z,19.8
2018-04-29T01:18:43.303Z,19.83
2018-04-29T01:19:52.792Z,19.83
2018-04-29T01:21:02.292Z,19.83
2018-04-29T01:22:11.786Z,19.84
2018-04-29T01:23:20.743Z,19.87
2018-04-29T01:24:29.706Z,19.84
2018-04-29T01:25:39.198Z,19.91
2018-04-29T01:26:48.955Z,19.86
2018-04-29T01:27:58.454Z,19.86
2018-04-29T01:29:07.413Z,19.83
2018-04-29T01:30:16.640Z,19.81
2018-04-29T01:31:25.598Z,19.86
2018-04-29T01:32:35.650Z,19.76
2018-04-29T01:33:44.875Z,19.86
2018-04-29T01:34:54.103Z,19.86
2018-04-29T01:36:03.598Z,19.77
2018-04-29T01:37:13.097Z,19.78
2018-04-29T01:38:22.595Z,19.71
2018-04-29T01:39:31.828Z,19.69
2018-04-29T01:40:41.595Z,19.81
2018-04-29T01:41:50.556Z,19.78
2018-04-29T01:43:00.052Z,19.71
2018-04-29T01:44:09.278Z,19.8
2018-04-29T01:45:18.783Z,19.77
2018-04-29T01:46:28.281Z,19.69
2018-04-29T01:47:37.780Z,19.73
2018-04-29T01:48:47.009Z,19.73
2018-04-29T01:49:55.963Z,19.73
2018-04-29T01:51:05.191Z,19.71
2018-04-29T01:52:14.420Z,19.73
2018-04-29T01:53:23.648Z,19.71
2018-04-29T01:54:33.143Z,19.71
2018-04-29T01:55:42.374Z,19.74
2018-04-29T01:56:51.596Z,19.74
2018-04-29T01:58:01.368Z,19.73
2018-04-29T01:59:10.582Z,19.69
2018-04-29T02:00:20.076Z,19.71
2018-04-29T02:01:29.577Z,19.73
2018-04-29T02:02:39.342Z,19.65
2018-04-29T02:03:48.837Z,19.74
2018-04-29T02:04:58.068Z,19.69
2018-04-29T02:06:07.032Z,19.74
2018-04-29T02:07:16.795Z,19.71
2018-04-29T02:08:26.297Z,19.76
2018-04-29T02:09:35.258Z,19.69
2018-04-29T02:10:44.761Z,19.69
2018-04-29T02:11:54.795Z,19.71
2018-04-29T02:13:04.282Z,19.76
2018-04-29T02:14:14.316Z,19.76
2018-04-29T02:15:23.542Z,19.73
2018-04-29T02:16:33.313Z,19.68
2018-04-29T02:17:42.541Z,19.76
2018-04-29T02:18:51.772Z,19.68
2018-04-29T02:20:01.286Z,19.69
2018-04-29T02:21:10.783Z,19.73
2018-04-29T02:22:19.473Z,19.65
2018-04-29T02:23:28.704Z,19.68
2018-04-29T02:24:37.934Z,19.68
2018-04-29T02:25:47.960Z,19.73
2018-04-29T02:26:57.457Z,19.62
2018-04-29T02:28:06.957Z,19.66
2018-04-29T02:29:16.714Z,19.66
2018-04-29T02:30:26.212Z,19.69
2018-04-29T02:31:35.444Z,19.62
2018-04-29T02:32:45.215Z,19.73
2018-04-29T02:33:54.709Z,19.66
2018-04-29T02:35:04.206Z,19.56
2018-04-29T02:36:13.708Z,19.68
2018-04-29T02:37:23.478Z,19.66
2018-04-29T02:38:32.708Z,19.73
2018-04-29T02:39:41.941Z,19.55
2018-04-29T02:40:51.740Z,19.73
2018-04-29T02:42:00.971Z,19.66
2018-04-29T02:43:10.742Z,19.65
2018-04-29T02:44:20.241Z,19.66
2018-04-29T02:45:30.007Z,19.63
2018-04-29T02:46:39.787Z,19.73
2018-04-29T02:47:49.565Z,19.62
2018-04-29T02:48:59.617Z,19.68
2018-04-29T02:50:09.113Z,19.59
2018-04-29T02:51:18.617Z,19.61
2018-04-29T02:52:27.853Z,19.65
2018-04-29T02:53:37.700Z,19.61
2018-04-29T02:54:47.197Z,19.59
2018-04-29T02:55:56.711Z,19.65
2018-04-29T02:57:06.496Z,19.61
2018-04-29T02:58:15.992Z,19.59
2018-04-29T02:59:25.758Z,19.58
2018-04-29T03:00:35.280Z,19.58
2018-04-29T03:01:44.777Z,19.58
2018-04-29T03:02:54.002Z,19.63
2018-04-29T03:04:03.769Z,19.56
2018-04-29T03:05:13.544Z,19.55
2018-04-29T03:06:22.775Z,19.55
2018-04-29T03:07:32.812Z,19.59
2018-04-29T03:08:42.861Z,19.56
2018-04-29T03:09:52.357Z,19.51
2018-04-29T03:11:01.323Z,19.62
2018-04-29T03:12:10.823Z,19.51
2018-04-29T03:13:20.597Z,19.58
2018-04-29T03:14:30.369Z,19.62
2018-04-29T03:15:39.599Z,19.55
2018-04-29T03:16:48.822Z,19.56
2018-04-29T03:17:58.581Z,19.51
2018-04-29T03:19:08.611Z,19.61
2018-04-29T03:20:18.116Z,19.61
2018-04-29T03:21:27.892Z,19.54
2018-04-29T03:22:37.387Z,19.62
2018-04-29T03:23:47.154Z,19.58
2018-04-29T03:24:56.657Z,19.5
2018-04-29T03:26:05.885Z,19.56
2018-04-29T03:27:15.385Z,19.59
2018-04-29T03:28:25.156Z,19.59
2018-04-29T03:29:34.394Z,19.54
2018-04-29T03:30:43.889Z,19.58
2018-04-29T03:31:53.931Z,19.55
2018-04-29T03:33:03.440Z,19.47
2018-04-29T03:34:12.671Z,19.56
2018-04-29T03:35:21.637Z,19.47
2018-04-29T03:36:31.423Z,19.51
2018-04-29T03:37:40.918Z,19.48
2018-04-29T03:38:50.149Z,19.54
2018-04-29T03:39:59.643Z,19.56
2018-04-29T03:41:08.875Z,19.5
2018-04-29T03:42:18.375Z,19.55
2018-04-29T03:43:28.139Z,19.48
2018-04-29T03:44:37.370Z,19.54
2018-04-29T03:45:46.596Z,19.5
2018-04-29T03:46:55.557Z,19.47
2018-04-29T03:48:05.055Z,19.46
2018-04-29T03:49:14.279Z,19.5
2018-04-29T03:50:23.238Z,19.47
2018-04-29T03:51:32.197Z,19.47
2018-04-29T03:52:41.424Z,19.56
2018-04-29T03:53:51.182Z,19.5
2018-04-29T03:55:00.676Z,19.51
2018-04-29T03:56:09.919Z,19.55
2018-04-29T03:57:19.688Z,19.5
2018-04-29T03:58:28.912Z,19.48
2018-04-29T03:59:38.408Z,19.51
2018-04-29T04:00:47.632Z,19.51
2018-04-29T04:01:57.408Z,19.5
2018-04-29T04:03:06.637Z,19.55
2018-04-29T04:04:15.864Z,19.48
2018-04-29T04:05:25.626Z,19.51
2018-04-29T04:06:34.851Z,19.56
2018-04-29T04:07:43.811Z,19.43
2018-04-29T04:08:53.304Z,19.5
2018-04-29T04:10:02.812Z,19.5
2018-04-29T04:11:11.767Z,19.54
2018-04-29T04:12:20.998Z,19.47
2018-04-29T04:13:30.760Z,19.44
2018-04-29T04:14:40.521Z,19.54
2018-04-29T04:15:50.013Z,19.47
2018-04-29T04:16:59.513Z,19.5
2018-04-29T04:18:09.013Z,19.46
2018-04-29T04:19:19.046Z,19.47
2018-04-29T04:20:28.610Z,19.41
2018-04-29T04:21:38.370Z,19.51
2018-04-29T04:22:47.876Z,19.47
2018-04-29T04:23:57.634Z,19.48
2018-04-29T04:25:07.396Z,19.5
2018-04-29T04:26:16.895Z,19.5
2018-04-29T04:27:26.392Z,19.46
2018-04-29T04:28:35.887Z,19.46
2018-04-29T04:29:45.380Z,19.46
2018-04-29T04:30:55.136Z,19.46
2018-04-29T04:32:04.098Z,19.39
2018-04-29T04:33:13.345Z,19.44
2018-04-29T04:34:22.570Z,19.47
2018-04-29T04:35:31.530Z,19.5
2018-04-29T04:36:41.026Z,19.46
2018-04-29T04:37:49.983Z,19.4
2018-04-29T04:39:00.016Z,19.46
2018-04-29T04:40:09.824Z,19.48
2018-04-29T04:41:20.071Z,19.46
2018-04-29T04:42:29.847Z,19.4
2018-04-29T04:43:38.807Z,19.41
2018-04-29T04:44:48.299Z,19.4
2018-04-29T04:45:57.794Z,19.37
2018-04-29T04:47:07.561Z,19.44
2018-04-29T04:48:16.787Z,19.46
2018-04-29T04:49:26.296Z,19.39
2018-04-29T04:50:34.995Z,19.44
2018-04-29T04:51:44.946Z,19.43
2018-04-29T04:52:54.167Z,19.44
2018-04-29T04:54:03.925Z,19.41
2018-04-29T04:55:13.418Z,19.44
2018-04-29T04:56:22.957Z,19.39
2018-04-29T04:57:33.022Z,19.4
2018-04-29T04:58:41.979Z,19.36
2018-04-29T04:59:50.670Z,19.37
2018-04-29T05:00:59.897Z,19.39
2018-04-29T05:02:08.853Z,19.43
2018-04-29T05:03:18.351Z,19.39
2018-04-29T05:04:27.889Z,19.39
2018-04-29T05:05:37.112Z,19.36
2018-04-29T05:06:46.341Z,19.39
2018-04-29T05:07:56.382Z,19.33
2018-04-29T05:09:06.163Z,19.39
2018-04-29T05:10:15.659Z,19.32
2018-04-29T05:11:24.617Z,19.36
2018-04-29T05:12:34.472Z,19.32
2018-04-29T05:13:43.779Z,19.36
2018-04-29T05:14:53.789Z,19.43
2018-04-29T05:16:03.818Z,19.33
2018-04-29T05:17:13.308Z,19.36
2018-04-29T05:18:22.810Z,19.29
2018-04-29T05:19:32.040Z,19.33
2018-04-29T05:20:41.259Z,19.36
2018-04-29T05:21:51.027Z,19.37
2018-04-29T05:22:59.718Z,19.37
2018-04-29T05:24:08.944Z,19.29
2018-04-29T05:25:18.438Z,19.26
2018-04-29T05:26:27.401Z,19.33
2018-04-29T05:27:36.897Z,19.36
2018-04-29T05:28:46.671Z,19.32
2018-04-29T05:29:56.435Z,19.39
2018-04-29T05:31:05.662Z,19.36
2018-04-29T05:32:14.627Z,19.22
2018-04-29T05:33:23.852Z,19.32
2018-04-29T05:34:33.349Z,19.39
2018-04-29T05:35:43.116Z,19.37
2018-04-29T05:36:52.079Z,19.31
2018-04-29T05:38:01.038Z,19.36
2018-04-29T05:39:10.535Z,19.37
2018-04-29T05:40:20.300Z,19.32
2018-04-29T05:41:28.993Z,19.26
2018-04-29T05:42:38.751Z,19.31
2018-04-29T05:43:48.519Z,19.28
2018-04-29T05:44:58.282Z,19.31
2018-04-29T05:46:07.507Z,19.29
2018-04-29T05:47:16.732Z,19.36
2018-04-29T05:48:26.228Z,19.33
2018-04-29T05:49:35.462Z,19.32
2018-04-29T05:50:45.230Z,19.25
2018-04-29T05:51:54.727Z,19.31
2018-04-29T05:53:03.949Z,19.29
2018-04-29T05:54:13.985Z,19.29
2018-04-29T05:55:24.018Z,19.25
2018-04-29T05:56:33.243Z,19.32
2018-04-29T05:57:43.003Z,19.28
2018-04-29T05:58:52.241Z,19.26
2018-04-29T06:00:01.474Z,19.33
2018-04-29T06:01:10.434Z,19.29
2018-04-29T06:02:19.394Z,19.32
2018-04-29T06:03:28.882Z,19.29
2018-04-29T06:04:38.110Z,19.26
2018-04-29T06:05:47.871Z,19.26
2018-04-29T06:06:57.636Z,19.31
2018-04-29T06:08:06.594Z,19.33
2018-04-29T06:09:16.090Z,19.32
2018-04-29T06:10:25.580Z,19.31
2018-04-29T06:11:34.818Z,19.39
2018-04-29T06:12:44.046Z,19.37
2018-04-29T06:13:53.815Z,19.31
2018-04-29T06:15:03.953Z,19.32
2018-04-29T06:16:13.445Z,19.29
2018-04-29T06:17:22.940Z,19.25
2018-04-29T06:18:32.441Z,19.33
2018-04-29T06:19:42.200Z,19.23
2018-04-29T06:20:51.696Z,19.31
2018-04-29T06:22:01.456Z,19.32
2018-04-29T06:23:10.952Z,19.28
2018-04-29T06:24:20.190Z,19.29
2018-04-29T06:25:29.959Z,19.36
2018-04-29T06:26:39.449Z,19.36
2018-04-29T06:27:48.944Z,19.29
2018-04-29T06:28:58.169Z,19.32
2018-04-29T06:30:07.666Z,19.26
2018-04-29T06:31:17.164Z,19.36
2018-04-29T06:32:26.395Z,19.36
2018-04-29T06:33:36.424Z,19.29
2018-04-29T06:34:46.200Z,19.26
2018-04-29T06:35:55.694Z,19.28
2018-04-29T06:37:05.463Z,19.26
2018-04-29T06:38:14.692Z,19.28
2018-04-29T06:39:24.193Z,19.28
2018-04-29T06:40:33.692Z,19.28
2018-04-29T06:41:42.656Z,19.31
2018-04-29T06:42:51.347Z,19.29
2018-04-29T06:44:00.846Z,19.37
2018-04-29T06:45:10.074Z,19.36
2018-04-29T06:46:19.582Z,19.32
2018-04-29T06:47:28.816Z,19.33
2018-04-29T06:48:37.782Z,19.31
2018-04-29T06:49:47.012Z,19.37
2018-04-29T06:50:57.054Z,19.36
2018-04-29T06:52:06.013Z,19.36
2018-04-29T06:53:15.789Z,19.33
2018-04-29T06:54:25.012Z,19.39
2018-04-29T06:55:34.524Z,19.39
2018-04-29T06:56:44.055Z,19.4
2018-04-29T06:57:53.279Z,19.43
2018-04-29T06:59:02.771Z,19.39
2018-04-29T07:00:12.003Z,19.41
2018-04-29T07:01:21.497Z,19.37
2018-04-29T07:02:31.263Z,19.37
2018-04-29T07:03:40.500Z,19.44
2018-04-29T07:04:50.324Z,19.43
2018-04-29T07:05:59.836Z,19.4
2018-04-29T07:07:08.795Z,19.39
2018-04-29T07:08:18.466Z,19.36
2018-04-29T07:09:27.780Z,19.47
2018-04-29T07:10:36.996Z,19.37
2018-04-29T07:11:45.953Z,19.47
2018-04-29T07:12:55.177Z,19.47
2018-04-29T07:14:04.419Z,19.39
2018-04-29T07:15:14.033Z,19.4
2018-04-29T07:16:23.530Z,19.44
2018-04-29T07:17:33.292Z,19.44
2018-04-29T07:18:43.073Z,19.37
2018-04-29T07:19:52.853Z,19.43
2018-04-29T07:21:02.642Z,19.44
2018-04-29T07:22:12.684Z,19.41
2018-04-29T07:23:22.175Z,19.36
2018-04-29T07:24:31.940Z,19.37
2018-04-29T07:25:41.974Z,19.47
2018-04-29T07:26:50.931Z,19.47
2018-04-29T07:28:00.704Z,19.41
2018-04-29T07:29:09.938Z,19.41
2018-04-29T07:30:19.159Z,19.48
2018-04-29T07:31:28.389Z,19.46
2018-04-29T07:32:37.621Z,19.47
2018-04-29T07:33:46.588Z,19.48
2018-04-29T07:34:56.636Z,19.47
2018-04-29T07:36:06.133Z,19.46
2018-04-29T07:37:15.624Z,19.47
2018-04-29T07:38:25.397Z,19.41
2018-04-29T07:39:35.168Z,19.41
2018-04-29T07:40:44.400Z,19.48
2018-04-29T07:41:54.444Z,19.46
2018-04-29T07:43:03.943Z,19.46
2018-04-29T07:44:13.703Z,19.5
2018-04-29T07:45:23.469Z,19.46
2018-04-29T07:46:32.826Z,19.43
2018-04-29T07:47:42.405Z,19.47
2018-04-29T07:48:51.628Z,19.46
2018-04-29T07:50:00.590Z,19.43
2018-04-29T07:51:09.818Z,19.51
2018-04-29T07:52:20.451Z,19.5
2018-04-29T07:53:30.379Z,19.51
2018-04-29T07:54:40.137Z,19.47
2018-04-29T07:55:49.643Z,19.47
2018-04-29T07:56:59.483Z,19.47
2018-04-29T07:58:08.990Z,19.54
2018-04-29T07:59:18.475Z,19.51
2018-04-29T08:00:28.240Z,19.54
2018-04-29T08:01:38.004Z,19.5
2018-04-29T08:02:46.961Z,19.46
2018-04-29T08:03:56.186Z,19.51
2018-04-29T08:05:05.691Z,19.48
2018-04-29T08:06:15.182Z,19.46
2018-04-29T08:07:24.414Z,19.47
2018-04-29T08:08:33.105Z,19.56
2018-04-29T08:09:42.600Z,19.5
2018-04-29T08:10:52.095Z,19.54
2018-04-29T08:12:01.329Z,19.51
2018-04-29T08:13:10.020Z,19.54
2018-04-29T08:14:19.512Z,19.5
2018-04-29T08:15:29.385Z,19.47
2018-04-29T08:16:39.031Z,19.47
2018-04-29T08:17:48.258Z,19.47
2018-04-29T08:18:57.219Z,19.56
2018-04-29T08:20:06.452Z,19.47
2018-04-29T08:21:16.217Z,19.48
2018-04-29T08:22:25.720Z,19.5
2018-04-29T08:23:35.223Z,19.5
2018-04-29T08:24:44.996Z,19.5
2018-04-29T08:25:54.226Z,19.5
2018-04-29T08:27:03.994Z,19.54
2018-04-29T08:28:12.951Z,19.55
2018-04-29T08:29:22.235Z,19.55
2018-04-29T08:30:32.004Z,19.48
2018-04-29T08:31:42.052Z,19.51
2018-04-29T08:32:51.816Z,19.51
2018-04-29T08:34:01.595Z,19.5
2018-04-29T08:35:11.369Z,19.55
2018-04-29T08:36:21.015Z,19.59
2018-04-29T08:37:31.074Z,19.51
2018-04-29T08:38:40.300Z,19.59
2018-04-29T08:39:50.071Z,19.5
2018-04-29T08:41:00.108Z,19.56
2018-04-29T08:42:09.336Z,19.56
2018-04-29T08:43:19.079Z,19.59
2018-04-29T08:44:29.039Z,19.58
2018-04-29T08:45:38.273Z,19.56
2018-04-29T08:46:47.771Z,19.51
2018-04-29T08:47:57.000Z,19.62
2018-04-29T08:49:06.500Z,19.56
2018-04-29T08:50:16.112Z,19.58
2018-04-29T08:51:26.080Z,19.62
2018-04-29T08:52:35.565Z,19.55
2018-04-29T08:53:45.332Z,19.51
2018-04-29T08:54:55.597Z,19.55
2018-04-29T08:56:05.416Z,19.59
2018-04-29T08:57:15.023Z,19.51
2018-04-29T08:58:23.985Z,19.56
2018-04-29T08:59:33.486Z,19.65
2018-04-29T09:00:43.253Z,19.58
2018-04-29T09:01:53.026Z,19.59
2018-04-29T09:03:02.799Z,19.56
2018-04-29T09:04:12.577Z,19.62
2018-04-29T09:05:21.802Z,19.59
2018-04-29T09:06:31.835Z,19.51
2018-04-29T09:07:41.063Z,19.58
2018-04-29T09:08:50.571Z,19.56
2018-04-29T09:09:59.798Z,19.65
2018-04-29T09:11:09.304Z,19.58
2018-04-29T09:12:18.794Z,19.62
2018-04-29T09:13:28.293Z,19.63
2018-04-29T09:14:38.072Z,19.63
2018-04-29T09:15:47.573Z,19.56
2018-04-29T09:16:56.896Z,19.66
2018-04-29T09:18:06.408Z,19.65
2018-04-29T09:19:15.642Z,19.65
2018-04-29T09:20:25.151Z,19.62
2018-04-29T09:21:34.646Z,19.61
2018-04-29T09:22:43.876Z,19.65
2018-04-29T09:23:53.101Z,19.56
2018-04-29T09:25:02.861Z,19.66
2018-04-29T09:26:12.097Z,19.69
2018-04-29T09:27:21.606Z,19.65
2018-04-29T09:28:31.105Z,19.58
2018-04-29T09:29:40.862Z,19.59
2018-04-29T09:30:50.637Z,19.66
2018-04-29T09:32:00.411Z,19.73
2018-04-29T09:33:09.641Z,19.76
2018-04-29T09:34:19.397Z,19.65
2018-04-29T09:35:28.628Z,19.73
2018-04-29T09:36:37.853Z,19.76
2018-04-29T09:37:47.620Z,19.73
2018-04-29T09:38:57.426Z,19.58
2018-04-29T09:40:07.199Z,19.55
2018-04-29T09:41:16.161Z,19.63
2018-04-29T09:42:25.982Z,19.73
2018-04-29T09:43:35.853Z,19.68
2018-04-29T09:44:45.718Z,19.69
2018-04-29T09:45:54.947Z,19.68
2018-04-29T09:47:04.449Z,19.69
2018-04-29T09:48:13.690Z,19.66
2018-04-29T09:49:22.646Z,19.69
2018-04-29T09:50:32.145Z,19.71
2018-04-29T09:51:41.636Z,19.73
2018-04-29T09:52:50.871Z,19.69
2018-04-29T09:54:00.363Z,19.62
2018-04-29T09:55:09.937Z,19.66
2018-04-29T09:56:19.163Z,19.68
2018-04-29T09:57:28.658Z,19.66
2018-04-29T09:58:37.885Z,19.71
2018-04-29T09:59:46.844Z,19.73
2018-04-29T10:00:56.913Z,19.68
2018-04-29T10:02:06.896Z,19.63
2018-04-29T10:03:15.856Z,19.71
2018-04-29T10:04:25.352Z,19.68
2018-04-29T10:05:34.578Z,19.69
2018-04-29T10:06:44.083Z,19.65
2018-04-29T10:07:53.848Z,19.71
2018-04-29T10:09:03.612Z,19.68
2018-04-29T10:10:13.400Z,19.66
2018-04-29T10:11:22.359Z,19.71
2018-04-29T10:12:31.318Z,19.71
2018-04-29T10:13:40.820Z,19.68
2018-04-29T10:14:50.049Z,19.65
2018-04-29T10:15:59.270Z,19.63
2018-04-29T10:17:08.765Z,19.66
2018-04-29T10:18:18.262Z,19.71
2018-04-29T10:19:27.755Z,19.71
2018-04-29T10:20:37.523Z,19.71
2018-04-29T10:21:47.290Z,19.73
2018-04-29T10:22:57.056Z,19.76
2018-04-29T10:24:06.286Z,19.68
2018-04-29T10:25:15.258Z,19.76
2018-04-29T10:26:25.024Z,19.73
2018-04-29T10:27:34.523Z,19.68
2018-04-29T10:28:44.558Z,19.76
2018-04-29T10:29:54.336Z,19.74
2018-04-29T10:31:03.564Z,19.73
2018-04-29T10:32:13.070Z,19.73
2018-04-29T10:33:22.609Z,19.76
2018-04-29T10:34:32.653Z,19.71
2018-04-29T10:35:42.147Z,19.69
2018-04-29T10:36:51.649Z,19.69
2018-04-29T10:38:00.869Z,19.71
2018-04-29T10:39:10.101Z,19.69
2018-04-29T10:40:19.865Z,19.69
2018-04-29T10:41:29.086Z,19.69
2018-04-29T10:42:38.850Z,19.69
2018-04-29T10:43:48.077Z,19.74
2018-04-29T10:44:57.857Z,19.69
2018-04-29T10:46:07.090Z,19.71
2018-04-29T10:47:16.313Z,19.71
2018-04-29T10:48:26.081Z,19.69
2018-04-29T10:49:35.305Z,19.71
2018-04-29T10:50:44.798Z,19.66
2018-04-29T10:51:54.575Z,19.76
2018-04-29T10:53:03.273Z,19.74
2018-04-29T10:54:13.046Z,19.69
2018-04-29T10:55:22.542Z,19.76
2018-04-29T10:56:32.054Z,19.69
2018-04-29T10:57:42.161Z,19.73
2018-04-29T10:58:52.601Z,19.74
2018-04-29T11:00:01.936Z,19.69
2018-04-29T11:01:11.434Z,19.78
2018-04-29T11:02:20.931Z,19.76
2018-04-29T11:03:30.441Z,19.71
2018-04-29T11:04:39.686Z,19.76
2018-04-29T11:05:48.915Z,19.71
2018-04-29T11:06:58.678Z,19.73
2018-04-29T11:08:07.904Z,19.69
2018-04-29T11:09:17.669Z,19.69
2018-04-29T11:10:26.636Z,19.66
2018-04-29T11:11:36.679Z,19.76
2018-04-29T11:12:46.244Z,19.73
2018-04-29T11:13:55.742Z,19.73
2018-04-29T11:15:04.970Z,19.74
2018-04-29T11:16:14.467Z,19.73
2018-04-29T11:17:24.016Z,19.73
2018-04-29T11:18:33.462Z,19.71
2018-04-29T11:19:43.302Z,19.73
2018-04-29T11:20:53.338Z,19.71
2018-04-29T11:22:02.573Z,19.74
2018-04-29T11:23:12.220Z,19.76
2018-04-29T11:24:22.344Z,19.76
2018-04-29T11:25:31.845Z,19.71
2018-04-29T11:26:41.345Z,19.74
2018-04-29T11:27:50.837Z,19.66
2018-04-29T11:29:00.073Z,19.74
2018-04-29T11:30:09.576Z,19.71
2018-04-29T11:31:19.068Z,19.69
2018-04-29T11:32:28.589Z,19.73
2018-04-29T11:33:38.359Z,19.66
2018-04-29T11:34:47.854Z,19.76
2018-04-29T11:35:57.349Z,19.71
2018-04-29T11:37:06.316Z,19.71
2018-04-29T11:38:15.815Z,19.76
2018-04-29T11:39:25.061Z,19.76
2018-04-29T11:40:34.578Z,19.74
2018-04-29T11:41:44.450Z,19.73
2018-04-29T11:42:54.481Z,19.71
2018-04-29T11:44:03.713Z,19.71
2018-04-29T11:45:12.677Z,19.78
2018-04-29T11:46:22.460Z,19.74
2018-04-29T11:47:32.227Z,19.77
2018-04-29T11:48:41.720Z,19.68
2018-04-29T11:49:51.486Z,19.78
2018-04-29T11:51:00.710Z,19.71
2018-04-29T11:52:09.932Z,19.68
2018-04-29T11:53:19.164Z,19.73
2018-04-29T11:54:28.392Z,19.86
2018-04-29T11:55:37.350Z,19.69
2018-04-29T11:56:46.848Z,19.78
2018-04-29T11:57:56.344Z,19.71
2018-04-29T11:59:06.119Z,19.73
2018-04-29T12:00:15.350Z,19.71
2018-04-29T12:01:24.578Z,19.71
2018-04-29T12:02:34.221Z,19.69
2018-04-29T12:03:44.201Z,19.77
2018-04-29T12:04:53.431Z,19.71
2018-04-29T12:06:02.122Z,19.83
2018-04-29T12:07:11.617Z,19.69
2018-04-29T12:08:20.842Z,19.71
2018-04-29T12:09:30.337Z,19.74
2018-04-29T12:10:39.565Z,19.73
2018-04-29T12:11:48.787Z,19.76
2018-04-29T12:12:58.021Z,19.68
2018-04-29T12:14:07.786Z,19.76
2018-04-29T12:15:17.561Z,19.76
2018-04-29T12:16:26.910Z,19.78
2018-04-29T12:17:35.949Z,19.66
2018-04-29T12:18:45.713Z,19.8
2018-04-29T12:19:54.950Z,19.71
2018-04-29T12:21:03.910Z,19.66
2018-04-29T12:22:13.448Z,19.71
2018-04-29T12:23:23.214Z,19.76
2018-04-29T12:24:33.156Z,19.73
2018-04-29T12:25:43.236Z,19.76
2018-04-29T12:26:52.478Z,19.77
2018-04-29T12:28:02.247Z,19.81
2018-04-29T12:29:11.750Z,19.66
2018-04-29T12:30:20.985Z,19.78
2018-04-29T12:31:30.749Z,19.71
2018-04-29T12:32:39.974Z,19.74
2018-04-29T12:33:49.326Z,19.74
2018-04-29T12:34:58.284Z,19.8
2018-04-29T12:36:07.779Z,19.69
2018-04-29T12:37:17.274Z,19.73
2018-04-29T12:38:26.508Z,19.8
2018-04-29T12:39:36.273Z,19.78
2018-04-29T12:40:45.240Z,19.78
2018-04-29T12:41:55.272Z,19.68
2018-04-29T12:43:04.514Z,19.8
2018-04-29T12:44:14.293Z,19.73
2018-04-29T12:45:24.057Z,19.78
2018-04-29T12:46:33.324Z,19.76
2018-04-29T12:47:43.258Z,19.68
2018-04-29T12:48:52.759Z,19.8
2018-04-29T12:50:02.254Z,19.8
2018-04-29T12:51:11.489Z,19.68
2018-04-29T12:52:20.862Z,19.71
2018-04-29T12:53:30.200Z,19.71
2018-04-29T12:54:39.698Z,19.73
2018-04-29T12:55:48.925Z,19.8
2018-04-29T12:56:58.155Z,19.83
2018-04-29T12:58:07.653Z,19.78
2018-04-29T12:59:17.145Z,19.71
2018-04-29T13:00:27.076Z,19.73
2018-04-29T13:01:36.574Z,19.81
2018-04-29T13:02:46.688Z,19.8
2018-04-29T13:03:56.450Z,19.69
2018-04-29T13:05:05.956Z,19.81
2018-04-29T13:06:15.549Z,19.81
2018-04-29T13:07:25.313Z,19.73
2018-04-29T13:08:35.743Z,19.78
2018-04-29T13:09:44.702Z,19.69
2018-04-29T13:10:53.928Z,19.74
2018-04-29T13:12:02.892Z,19.83
2018-04-29T13:13:12.657Z,19.88
2018-04-29T13:14:22.692Z,19.73
2018-04-29T13:15:32.465Z,19.74
2018-04-29T13:16:41.967Z,19.77
2018-04-29T13:17:51.198Z,19.8
2018-04-29T13:19:00.425Z,19.8
2018-04-29T13:20:10.077Z,19.8
2018-04-29T13:21:19.570Z,19.78
2018-04-29T13:22:29.355Z,19.68
2018-04-29T13:23:38.317Z,19.86
2018-04-29T13:24:47.819Z,19.8
2018-04-29T13:25:57.315Z,19.77
2018-04-29T13:27:06.820Z,19.83
2018-04-29T13:28:16.590Z,19.8
2018-04-29T13:29:25.548Z,19.73
2018-04-29T13:30:35.651Z,19.83
2018-04-29T13:31:45.160Z,19.81
2018-04-29T13:32:54.398Z,19.78
2018-04-29T13:34:04.172Z,19.86
2018-04-29T13:35:13.133Z,19.81
2018-04-29T13:36:22.361Z,19.84
2018-04-29T13:37:31.320Z,19.78
2018-04-29T13:38:40.811Z,19.8
2018-04-29T13:39:50.576Z,19.77
2018-04-29T13:41:00.067Z,19.8
2018-04-29T13:42:09.181Z,19.86
2018-04-29T13:43:18.896Z,19.87
2018-04-29T13:44:27.857Z,19.84
2018-04-29T13:45:37.089Z,19.84
2018-04-29T13:46:46.592Z,19.83
2018-04-29T13:47:56.090Z,19.8
2018-04-29T13:49:05.856Z,19.81
2018-04-29T13:50:15.087Z,19.81
2018-04-29T13:51:24.584Z,19.76
2018-04-29T13:52:34.365Z,19.8
2018-04-29T13:53:44.427Z,19.78
2018-04-29T13:54:54.199Z,19.8
2018-04-29T13:56:03.773Z,19.83
2018-04-29T13:57:13.006Z,19.83
2018-04-29T13:58:22.776Z,19.81
2018-04-29T13:59:32.279Z,19.83
2018-04-29T14:00:41.778Z,19.8
2018-04-29T14:01:51.741Z,19.84
2018-04-29T14:03:01.269Z,19.81
2018-04-29T14:04:10.763Z,19.8
2018-04-29T14:05:19.997Z,19.81
2018-04-29T14:06:29.784Z,19.83
2018-04-29T14:07:39.011Z,19.84
2018-04-29T14:08:48.237Z,19.78
2018-04-29T14:09:57.731Z,19.86
2018-04-29T14:11:06.689Z,19.73
2018-04-29T14:12:16.199Z,19.76
2018-04-29T14:13:25.424Z,19.86
2018-04-29T14:14:34.653Z,19.84
2018-04-29T14:15:43.883Z,19.83
2018-04-29T14:16:53.654Z,19.84
2018-04-29T14:18:03.426Z,19.81
2018-04-29T14:19:13.460Z,19.86
2018-04-29T14:20:22.956Z,19.81
2018-04-29T14:21:31.913Z,19.76
2018-04-29T14:22:40.878Z,19.83
2018-04-29T14:23:50.104Z,19.77
2018-04-29T14:24:59.596Z,19.74
2018-04-29T14:26:08.554Z,19.8
2018-04-29T14:27:18.317Z,19.8
2018-04-29T14:28:27.552Z,19.74
2018-04-29T14:29:37.039Z,19.84
2018-04-29T14:30:46.545Z,19.83
2018-04-29T14:31:56.041Z,19.91
2018-04-29T14:33:05.265Z,19.81
2018-04-29T14:34:15.300Z,19.78
2018-04-29T14:35:24.799Z,19.86
2018-04-29T14:36:34.065Z,19.81
2018-04-29T14:37:43.302Z,19.87
2018-04-29T14:38:53.062Z,19.84
2018-04-29T14:40:02.289Z,19.8
2018-04-29T14:41:11.790Z,19.81
2018-04-29T14:42:21.022Z,19.81
2018-04-29T14:43:30.290Z,19.87
2018-04-29T14:44:40.060Z,19.83
2018-04-29T14:45:49.287Z,19.81
2018-04-29T14:46:59.043Z,19.91
2018-04-29T14:48:08.536Z,19.81
2018-04-29T14:49:18.573Z,19.94
2018-04-29T14:50:28.663Z,19.84
2018-04-29T14:51:38.164Z,19.84
2018-04-29T14:52:47.926Z,19.83
2018-04-29T14:53:57.423Z,19.84
2018-04-29T14:55:06.925Z,19.78
2018-04-29T14:56:16.155Z,19.84
2018-04-29T14:57:24.846Z,19.86